Terminal Aerodrome Forecast
Issued by NWS Shreveport, LA

Home | Current Version | Previous Version | Text Only | Print | Product List | Glossary On
Versions: 1 2 3 4 5 6 7 8 9 10 11 12 13 14 15
875
FTUS44 KSHV 041134
TAFSHV
TAF
KSHV 041134Z 0412/0512 28007KT P6SM SKC
     FM041500 28012G18KT P6SM SKC
     FM041700 28013G21KT P6SM FEW040
     FM050000 29008KT P6SM SKC
     FM050600 34003KT P6SM SKC=

USA.gov is the U.S. government's official web portal to all federal, state and local government web resources and services.